createdAt,value
2022-11-19T00:01:24.937Z,13.75
2022-11-19T00:03:53.201Z,15.55
2022-11-19T00:06:23.591Z,16.95
2022-11-19T00:08:50.906Z,16.50
2022-11-19T00:11:20.675Z,16.70
2022-11-19T00:13:50.222Z,14.90
2022-11-19T00:16:16.861Z,16.67
2022-11-19T00:18:43.549Z,17.05
2022-11-19T00:21:13.036Z,17.10
2022-11-19T00:23:40.341Z,18.95
2022-11-19T00:26:12.936Z,17.77
2022-11-19T00:28:41.661Z,17.17
2022-11-19T00:31:13.033Z,17.35
2022-11-19T00:33:41.455Z,16.75
2022-11-19T00:36:11.138Z,16.15
2022-11-19T00:38:38.235Z,16.85
2022-11-19T00:41:05.388Z,17.25
2022-11-19T00:43:32.178Z,17.33
2022-11-19T00:45:58.866Z,17.40
2022-11-19T00:48:25.485Z,16.90
2022-11-19T00:50:52.200Z,16.48
2022-11-19T00:53:18.903Z,17.83
2022-11-19T00:55:45.644Z,17.90
2022-11-19T00:58:12.393Z,17.70
2022-11-19T01:00:39.200Z,17.55
2022-11-19T01:03:06.101Z,17.42
2022-11-19T01:05:32.894Z,18.00
2022-11-19T01:07:59.542Z,17.73
2022-11-19T01:10:26.230Z,18.30
2022-11-19T01:12:52.894Z,17.27
2022-11-19T01:15:19.596Z,16.83
2022-11-19T01:17:46.499Z,18.42
2022-11-19T01:20:13.272Z,18.48
2022-11-19T01:22:40.211Z,17.52
2022-11-19T01:25:07.188Z,17.65
2022-11-19T01:27:33.847Z,17.88
2022-11-19T01:30:00.510Z,18.67
2022-11-19T01:32:27.313Z,18.55
2022-11-19T01:34:53.986Z,17.60
2022-11-19T01:37:20.686Z,18.00
2022-11-19T01:39:47.437Z,19.10
2022-11-19T01:42:29.673Z,17.95
2022-11-19T01:45:03.431Z,16.13
2022-11-19T01:47:30.395Z,16.85
2022-11-19T01:49:57.155Z,18.52
2022-11-19T01:52:23.960Z,17.02
2022-11-19T01:54:53.937Z,16.70
2022-11-19T01:57:20.869Z,16.75
2022-11-19T01:59:51.123Z,17.02
2022-11-19T02:02:19.742Z,17.20
2022-11-19T02:04:48.387Z,18.10
2022-11-19T02:07:15.251Z,16.88
2022-11-19T02:09:43.094Z,16.83
2022-11-19T02:12:31.158Z,17.80
2022-11-19T02:15:16.550Z,16.75
2022-11-19T02:17:46.007Z,16.63
2022-11-19T02:20:54.714Z,17.23
2022-11-19T02:23:37.891Z,18.05
2022-11-19T02:26:09.052Z,17.67
2022-11-19T02:28:46.556Z,17.05
2022-11-19T02:31:45.890Z,16.60
2022-11-19T02:34:30.441Z,17.15
2022-11-19T02:37:02.837Z,16.00
2022-11-19T02:39:48.587Z,15.57
2022-11-19T02:42:35.082Z,16.60
2022-11-19T02:45:17.884Z,16.50
2022-11-19T02:47:58.822Z,15.77
2022-11-19T02:50:30.416Z,14.90
2022-11-19T02:52:57.748Z,15.75
2022-11-19T02:55:25.269Z,14.40
2022-11-19T02:58:10.837Z,16.02
2022-11-19T03:00:49.507Z,15.48
2022-11-19T03:03:19.830Z,16.40
2022-11-19T03:05:58.309Z,20.20
2022-11-19T03:08:25.335Z,20.38
2022-11-19T03:11:10.919Z,19.88
2022-11-19T03:13:55.894Z,18.42
2022-11-19T03:16:29.795Z,18.73
2022-11-19T03:19:30.209Z,17.27
2022-11-19T03:22:00.603Z,17.95
2022-11-19T03:24:39.851Z,16.48
2022-11-19T03:27:26.454Z,15.50
2022-11-19T03:29:56.786Z,15.00
2022-11-19T03:32:27.779Z,12.95
2022-11-19T03:34:59.517Z,13.98
2022-11-19T03:37:28.783Z,14.80
2022-11-19T03:39:59.275Z,14.50
2022-11-19T03:42:27.215Z,13.63
2022-11-19T03:45:01.964Z,13.18
2022-11-19T03:47:33.949Z,12.97
2022-11-19T03:50:06.714Z,13.10
2022-11-19T03:52:33.370Z,13.80
2022-11-19T03:55:00.039Z,13.07
2022-11-19T03:57:27.317Z,12.88
2022-11-19T03:59:54.024Z,12.95
2022-11-19T04:02:21.038Z,12.07
2022-11-19T04:04:47.692Z,12.60
2022-11-19T04:07:20.985Z,12.32
2022-11-19T04:09:48.271Z,13.13
2022-11-19T04:12:17.751Z,13.40
2022-11-19T04:14:44.964Z,12.48
2022-11-19T04:17:11.712Z,11.90
2022-11-19T04:19:38.432Z,12.15
2022-11-19T04:22:05.211Z,12.27
2022-11-19T04:24:31.900Z,12.45
2022-11-19T04:26:58.757Z,12.50
2022-11-19T04:29:25.466Z,12.38
2022-11-19T04:31:52.176Z,12.25
2022-11-19T04:34:18.846Z,12.45
2022-11-19T04:36:45.767Z,12.93
2022-11-19T04:39:12.711Z,12.82
2022-11-19T04:41:40.283Z,13.82
2022-11-19T04:44:07.196Z,13.60
2022-11-19T04:46:34.407Z,12.50
2022-11-19T04:49:01.101Z,13.20
2022-11-19T04:51:27.751Z,13.02
2022-11-19T04:53:55.100Z,11.95
2022-11-19T04:56:21.813Z,12.65
2022-11-19T04:58:48.555Z,13.77
2022-11-19T05:01:15.280Z,13.65
2022-11-19T05:03:42.058Z,13.15
2022-11-19T05:06:08.761Z,13.45
2022-11-19T05:08:35.415Z,13.07
2022-11-19T05:11:02.085Z,13.15
2022-11-19T05:13:28.865Z,12.05
2022-11-19T05:15:55.529Z,12.68
2022-11-19T05:18:23.781Z,12.55
2022-11-19T05:20:50.502Z,12.02
2022-11-19T05:23:17.210Z,12.40
2022-11-19T05:25:43.880Z,12.25
2022-11-19T05:28:10.632Z,12.68
2022-11-19T05:30:37.366Z,11.50
2022-11-19T05:33:04.086Z,10.90
2022-11-19T05:35:31.206Z,11.90
2022-11-19T05:37:57.929Z,12.52
2022-11-19T05:40:24.650Z,11.77
2022-11-19T05:42:51.298Z,11.50
2022-11-19T05:45:18.026Z,11.25
2022-11-19T05:47:48.440Z,11.57
2022-11-19T05:50:15.514Z,11.75
2022-11-19T05:52:42.160Z,11.18
2022-11-19T05:55:08.945Z,11.32
2022-11-19T05:57:35.582Z,10.75
2022-11-19T06:00:02.275Z,10.43
2022-11-19T06:02:29.003Z,9.38
2022-11-19T06:04:55.685Z,9.48
2022-11-19T06:07:22.742Z,9.30
2022-11-19T06:09:49.415Z,9.65
2022-11-19T06:12:16.060Z,10.00
2022-11-19T06:14:42.735Z,10.02
2022-11-19T06:17:09.392Z,9.15
2022-11-19T06:19:36.256Z,9.77
2022-11-19T06:22:03.026Z,9.15
2022-11-19T06:24:29.667Z,9.02
2022-11-19T06:26:56.356Z,8.95
2022-11-19T06:29:23.129Z,8.82
2022-11-19T06:31:49.812Z,9.02
2022-11-19T06:34:16.466Z,9.13
2022-11-19T06:36:49.078Z,8.15
2022-11-19T06:39:17.356Z,8.43
2022-11-19T06:41:44.228Z,8.23
2022-11-19T06:44:10.887Z,8.52
2022-11-19T06:46:37.560Z,8.43
2022-11-19T06:49:04.263Z,9.40
2022-11-19T06:51:31.006Z,8.73
2022-11-19T06:53:57.630Z,8.98
2022-11-19T06:56:24.290Z,8.57
2022-11-19T06:58:50.936Z,9.27
2022-11-19T07:01:17.671Z,8.75
2022-11-19T07:03:44.505Z,8.85
2022-11-19T07:06:11.159Z,9.48
2022-11-19T07:08:37.932Z,9.65
2022-11-19T07:11:05.107Z,9.02
2022-11-19T07:13:31.769Z,9.55
2022-11-19T07:15:58.437Z,9.10
2022-11-19T07:18:25.112Z,9.15
2022-11-19T07:20:51.747Z,9.10
2022-11-19T07:23:18.385Z,9.35
2022-11-19T07:25:45.090Z,8.30
2022-11-19T07:28:11.769Z,8.75
2022-11-19T07:30:38.380Z,8.60
2022-11-19T07:33:05.025Z,8.07
2022-11-19T07:35:31.679Z,8.13
2022-11-19T07:37:58.346Z,8.55
2022-11-19T07:40:25.004Z,8.07
2022-11-19T07:42:52.277Z,7.60
2022-11-19T07:45:21.615Z,8.07
2022-11-19T07:47:48.752Z,7.85
2022-11-19T07:50:16.147Z,7.63
2022-11-19T07:52:43.064Z,8.00
2022-11-19T07:55:09.957Z,7.45
2022-11-19T07:57:36.666Z,8.80
2022-11-19T08:00:05.943Z,7.38
2022-11-19T08:02:32.595Z,7.53
2022-11-19T08:04:59.280Z,7.30
2022-11-19T08:07:25.966Z,7.05
2022-11-19T08:09:52.740Z,6.75
2022-11-19T08:12:19.382Z,7.00
2022-11-19T08:14:46.020Z,6.82
2022-11-19T08:17:12.701Z,6.68
2022-11-19T08:19:39.373Z,6.78
2022-11-19T08:22:06.072Z,6.47
2022-11-19T08:24:32.744Z,6.13
2022-11-19T08:26:59.419Z,6.50
2022-11-19T08:29:26.129Z,5.93
2022-11-19T08:31:52.841Z,6.38
2022-11-19T08:34:19.768Z,6.00
2022-11-19T08:36:46.664Z,6.03
2022-11-19T08:39:13.635Z,5.65
2022-11-19T08:41:40.291Z,6.07
2022-11-19T08:44:06.950Z,6.00
2022-11-19T08:46:33.643Z,6.35
2022-11-19T08:49:00.354Z,5.97
2022-11-19T08:51:27.020Z,5.60
2022-11-19T08:53:53.740Z,5.50
2022-11-19T08:56:20.781Z,5.15
2022-11-19T08:58:47.869Z,5.38
2022-11-19T09:01:16.307Z,5.13
2022-11-19T09:03:43.352Z,5.00
2022-11-19T09:06:10.190Z,5.15
2022-11-19T09:08:37.003Z,4.78
2022-11-19T09:11:11.802Z,5.18
2022-11-19T09:13:39.149Z,5.27
2022-11-19T09:16:07.101Z,5.30
2022-11-19T09:18:34.001Z,5.60
2022-11-19T09:21:00.786Z,4.78
2022-11-19T09:23:27.801Z,5.25
2022-11-19T09:25:58.407Z,4.70
2022-11-19T09:28:25.730Z,4.57
2022-11-19T09:31:15.757Z,4.65
2022-11-19T09:33:44.969Z,4.75
2022-11-19T09:36:12.931Z,4.35
2022-11-19T09:38:39.766Z,4.18
2022-11-19T09:41:33.686Z,4.65
2022-11-19T09:44:09.232Z,4.32
2022-11-19T09:46:59.963Z,4.38
2022-11-19T09:49:45.371Z,4.15
2022-11-19T09:52:19.612Z,4.25
2022-11-19T09:54:53.850Z,4.28
2022-11-19T09:57:42.119Z,4.50
2022-11-19T10:00:10.176Z,4.32
2022-11-19T10:02:36.917Z,3.97
2022-11-19T10:05:03.780Z,3.75
2022-11-19T10:07:38.754Z,4.32
2022-11-19T10:10:55.989Z,4.40
2022-11-19T10:14:03.690Z,3.60
2022-11-19T10:16:53.393Z,3.75
2022-11-19T10:19:58.119Z,3.70
2022-11-19T10:22:34.245Z,3.58
2022-11-19T10:25:21.553Z,3.40
2022-11-19T10:28:01.064Z,3.45
2022-11-19T10:30:30.847Z,2.92
2022-11-19T10:33:07.428Z,2.97
2022-11-19T10:35:40.551Z,3.20
2022-11-19T10:38:34.494Z,3.15
2022-11-19T10:41:10.514Z,3.58
2022-11-19T10:43:50.388Z,3.40
2022-11-19T10:46:20.870Z,3.63
2022-11-19T10:48:53.067Z,3.40
2022-11-19T10:51:29.901Z,3.53
2022-11-19T10:53:57.309Z,3.13
2022-11-19T10:56:39.830Z,3.22
2022-11-19T10:59:25.143Z,3.78
2022-11-19T11:01:59.781Z,3.10
2022-11-19T11:04:28.660Z,3.72
2022-11-19T11:07:00.461Z,3.40
2022-11-19T11:09:42.524Z,3.50
2022-11-19T11:12:26.541Z,4.03
2022-11-19T11:14:55.030Z,4.20
2022-11-19T11:17:30.505Z,4.47
2022-11-19T11:20:22.329Z,3.75
2022-11-19T11:22:50.639Z,4.32
2022-11-19T11:25:28.562Z,4.63
2022-11-19T11:28:06.488Z,4.80
2022-11-19T11:30:33.630Z,5.15
2022-11-19T11:33:30.413Z,5.35
2022-11-19T11:36:01.054Z,5.88
2022-11-19T11:38:28.839Z,5.72
2022-11-19T11:41:42.036Z,5.72
2022-11-19T11:44:18.564Z,6.13
2022-11-19T11:46:53.951Z,6.50
2022-11-19T11:49:30.622Z,6.10
2022-11-19T11:52:05.098Z,6.15
2022-11-19T11:54:31.839Z,6.75
2022-11-19T11:57:21.161Z,6.53
2022-11-19T11:59:48.364Z,6.75
2022-11-19T12:02:24.086Z,6.32
2022-11-19T12:07:37.695Z,7.10
2022-11-19T12:10:33.978Z,7.15
2022-11-19T12:13:24.825Z,6.38
2022-11-19T12:16:13.400Z,7.47
2022-11-19T12:18:57.883Z,7.55
2022-11-19T12:21:43.804Z,7.65
2022-11-19T12:24:29.069Z,7.75
2022-11-19T12:27:07.593Z,8.03
2022-11-19T12:29:52.005Z,7.25
2022-11-19T12:32:32.101Z,7.50
2022-11-19T12:35:40.205Z,7.75
2022-11-19T12:38:24.572Z,7.80
2022-11-19T12:41:11.751Z,8.23
2022-11-19T12:43:43.779Z,7.78
2022-11-19T12:46:25.798Z,8.02
2022-11-19T12:48:55.224Z,7.70
2022-11-19T12:51:33.682Z,8.15
2022-11-19T12:54:40.482Z,8.35
2022-11-19T12:57:25.687Z,7.80
2022-11-19T13:00:11.168Z,9.00
2022-11-19T13:03:05.840Z,8.43
2022-11-19T13:05:50.384Z,8.27
2022-11-19T13:08:26.261Z,8.85
2022-11-19T13:11:03.975Z,9.32
2022-11-19T13:13:32.675Z,8.98
2022-11-19T13:16:23.242Z,10.48
2022-11-19T13:18:54.536Z,8.32
2022-11-19T13:21:50.685Z,9.77
2022-11-19T13:24:48.085Z,9.35
2022-11-19T13:27:23.011Z,9.60
2022-11-19T13:30:18.806Z,10.10
2022-11-19T13:32:51.298Z,9.73
2022-11-19T13:35:31.370Z,9.88
2022-11-19T13:38:27.827Z,10.18
2022-11-19T13:43:32.794Z,9.95
2022-11-19T13:46:36.623Z,10.18
2022-11-19T13:49:27.715Z,9.85
2022-11-19T13:52:02.498Z,10.82
2022-11-19T13:54:37.425Z,10.87
2022-11-19T13:57:06.852Z,11.75
2022-11-19T13:59:43.214Z,11.85
2022-11-19T14:02:39.761Z,11.10
2022-11-19T14:07:55.165Z,11.85
2022-11-19T14:10:40.848Z,11.65
2022-11-19T14:13:19.643Z,13.02
2022-11-19T14:16:10.010Z,11.65
2022-11-19T14:18:44.234Z,10.68
2022-11-19T14:21:26.161Z,11.48
2022-11-19T14:23:52.838Z,10.90
2022-11-19T14:26:41.465Z,11.23
2022-11-19T14:29:26.425Z,11.60
2022-11-19T14:32:02.369Z,12.57
2022-11-19T14:34:36.028Z,13.07
2022-11-19T14:37:12.944Z,12.82
2022-11-19T14:39:43.798Z,14.07
2022-11-19T14:42:13.605Z,14.52
2022-11-19T14:45:04.486Z,13.55
2022-11-19T14:47:34.590Z,13.30
2022-11-19T14:50:10.457Z,13.50
2022-11-19T14:52:50.286Z,13.52
2022-11-19T14:55:24.144Z,14.30
2022-11-19T14:58:26.186Z,15.73
2022-11-19T15:01:07.866Z,15.60
2022-11-19T15:03:37.584Z,16.63
2022-11-19T15:06:09.566Z,16.80
2022-11-19T15:08:58.274Z,16.92
2022-11-19T15:11:56.688Z,19.08
2022-11-19T15:14:29.304Z,17.27
2022-11-19T15:17:01.170Z,17.70
2022-11-19T15:20:07.618Z,16.00
2022-11-19T15:22:59.412Z,16.42
2022-11-19T15:25:40.340Z,17.00
2022-11-19T15:28:45.556Z,16.45
2022-11-19T15:31:33.615Z,16.67
2022-11-19T15:34:09.159Z,16.60
2022-11-19T15:36:40.141Z,15.95
2022-11-19T15:39:38.002Z,16.75
2022-11-19T15:42:11.597Z,18.10
2022-11-19T15:44:41.443Z,16.05
2022-11-19T15:47:37.398Z,16.38
2022-11-19T15:50:04.695Z,17.67
2022-11-19T15:52:32.268Z,16.67
2022-11-19T15:55:31.839Z,15.73
2022-11-19T15:58:10.850Z,15.82
2022-11-19T16:00:46.011Z,17.13
2022-11-19T16:03:13.160Z,16.38
2022-11-19T16:05:40.232Z,17.15
2022-11-19T16:08:13.092Z,17.50
2022-11-19T16:10:46.754Z,17.10
2022-11-19T16:13:26.249Z,17.25
2022-11-19T16:15:59.888Z,16.75
2022-11-19T16:18:26.801Z,18.40
2022-11-19T16:20:53.731Z,18.15
2022-11-19T16:23:27.177Z,18.90
2022-11-19T16:26:01.455Z,17.83
2022-11-19T16:28:31.085Z,17.88
2022-11-19T16:31:03.858Z,18.20
2022-11-19T16:33:34.692Z,18.50
2022-11-19T16:36:16.079Z,19.38
2022-11-19T16:38:49.561Z,18.77
2022-11-19T16:41:18.958Z,17.35
2022-11-19T16:43:51.842Z,17.33
2022-11-19T16:46:25.647Z,18.10
2022-11-19T16:48:55.673Z,17.05
2022-11-19T16:51:25.090Z,16.80
2022-11-19T16:53:51.871Z,17.13
2022-11-19T16:56:19.426Z,18.13
2022-11-19T16:58:46.479Z,18.95
2022-11-19T17:01:17.875Z,19.40
2022-11-19T17:03:45.241Z,20.92
2022-11-19T17:06:23.134Z,20.33
2022-11-19T17:08:59.144Z,20.48
2022-11-19T17:11:40.871Z,19.45
2022-11-19T17:14:16.343Z,21.35
2022-11-19T17:16:48.179Z,20.70
2022-11-19T17:19:19.625Z,22.45
2022-11-19T17:22:06.428Z,22.33
2022-11-19T17:24:44.081Z,21.08
2022-11-19T17:27:22.935Z,21.85
2022-11-19T17:29:49.812Z,22.75
2022-11-19T17:32:16.574Z,22.75
2022-11-19T17:34:45.595Z,22.88
2022-11-19T17:37:12.262Z,21.95
2022-11-19T17:39:39.056Z,23.77
2022-11-19T17:42:05.839Z,23.25
2022-11-19T17:44:33.521Z,22.10
2022-11-19T17:47:24.054Z,22.73
2022-11-19T17:49:52.035Z,22.23
2022-11-19T17:52:23.129Z,22.83
2022-11-19T17:54:51.093Z,23.30
2022-11-19T17:57:17.774Z,24.35
2022-11-19T17:59:44.538Z,23.33
2022-11-19T18:02:20.131Z,23.63
2022-11-19T18:04:48.085Z,24.23
2022-11-19T18:07:15.221Z,24.75
2022-11-19T18:09:42.288Z,24.27
2022-11-19T18:12:19.666Z,25.17
2022-11-19T18:14:47.270Z,24.85
2022-11-19T18:17:15.775Z,25.23
2022-11-19T18:19:42.643Z,24.08
2022-11-19T18:22:16.843Z,25.10
2022-11-19T18:24:43.687Z,24.30
2022-11-19T18:27:10.332Z,25.15
2022-11-19T18:29:36.993Z,25.15
2022-11-19T18:32:03.986Z,26.42
2022-11-19T18:34:30.681Z,24.95
2022-11-19T18:36:57.344Z,27.08
2022-11-19T18:39:24.353Z,25.50
2022-11-19T18:41:51.300Z,25.42
2022-11-19T18:44:17.948Z,26.83
2022-11-19T18:46:44.728Z,26.25
2022-11-19T18:49:11.414Z,25.02
2022-11-19T18:51:38.301Z,25.92
2022-11-19T18:54:05.013Z,25.58
2022-11-19T18:56:31.671Z,24.10
2022-11-19T18:59:03.384Z,24.73
2022-11-19T19:01:32.021Z,25.10
2022-11-19T19:03:59.168Z,22.77
2022-11-19T19:06:25.880Z,24.50
2022-11-19T19:08:53.084Z,24.40
2022-11-19T19:11:19.744Z,23.95
2022-11-19T19:13:46.716Z,23.20
2022-11-19T19:16:13.846Z,24.27
2022-11-19T19:18:40.732Z,24.65
2022-11-19T19:21:15.411Z,25.95
2022-11-19T19:23:42.517Z,24.38
2022-11-19T19:26:11.094Z,22.75
2022-11-19T19:28:38.429Z,24.65
2022-11-19T19:31:05.657Z,22.95
2022-11-19T19:33:32.842Z,24.52
2022-11-19T19:36:01.686Z,20.88
2022-11-19T19:38:28.404Z,22.38
2022-11-19T19:40:55.082Z,22.20
2022-11-19T19:43:21.851Z,22.73
2022-11-19T19:45:48.479Z,22.08
2022-11-19T19:48:15.113Z,23.40
2022-11-19T19:50:50.165Z,22.17
2022-11-19T19:53:16.823Z,22.35
2022-11-19T19:55:43.563Z,22.33
2022-11-19T19:58:10.241Z,22.95
2022-11-19T20:00:36.965Z,22.98
2022-11-19T20:03:03.677Z,20.75
2022-11-19T20:05:30.375Z,20.30
2022-11-19T20:07:57.058Z,22.00
2022-11-19T20:10:23.912Z,21.77
2022-11-19T20:12:52.830Z,19.55
2022-11-19T20:15:19.530Z,22.08
2022-11-19T20:17:46.525Z,22.88
2022-11-19T20:20:13.314Z,22.45
2022-11-19T20:22:39.969Z,21.70
2022-11-19T20:25:07.119Z,22.63
2022-11-19T20:27:33.748Z,22.88
2022-11-19T20:30:00.452Z,22.42
2022-11-19T20:32:27.201Z,22.98
2022-11-19T20:34:53.916Z,23.45
2022-11-19T20:37:20.609Z,23.67
2022-11-19T20:39:47.427Z,24.35
2022-11-19T20:42:14.082Z,25.23
2022-11-19T20:44:40.738Z,26.30
2022-11-19T20:47:07.405Z,26.60
2022-11-19T20:49:37.869Z,26.75
2022-11-19T20:52:05.136Z,27.00
2022-11-19T20:54:32.429Z,28.35
2022-11-19T20:57:00.105Z,29.23
2022-11-19T20:59:27.096Z,28.25
2022-11-19T21:01:55.660Z,28.60
2022-11-19T21:04:24.455Z,29.83
2022-11-19T21:06:51.408Z,29.58
2022-11-19T21:09:18.815Z,30.02
2022-11-19T21:11:45.922Z,30.70
2022-11-19T21:14:15.506Z,30.83
2022-11-19T21:16:42.249Z,29.05
2022-11-19T21:19:09.977Z,28.08
2022-11-19T21:21:38.759Z,26.48
2022-11-19T21:24:05.901Z,26.58
2022-11-19T21:26:32.717Z,27.85
2022-11-19T21:28:59.996Z,29.23
2022-11-19T21:31:36.535Z,29.55
2022-11-19T21:34:09.249Z,29.25
2022-11-19T21:36:36.435Z,31.35
2022-11-19T21:39:04.971Z,30.80
2022-11-19T21:41:31.853Z,32.17
2022-11-19T21:43:58.679Z,32.63
2022-11-19T21:46:25.387Z,32.80
2022-11-19T21:48:52.224Z,30.13
2022-11-19T21:51:24.155Z,32.22
2022-11-19T21:53:56.983Z,30.85
2022-11-19T21:56:25.034Z,29.15
2022-11-19T21:58:53.168Z,28.48
2022-11-19T22:01:19.997Z,29.50
2022-11-19T22:03:46.905Z,28.95
2022-11-19T22:06:13.654Z,29.98
2022-11-19T22:08:42.432Z,29.77
2022-11-19T22:11:10.545Z,30.65
2022-11-19T22:13:37.530Z,31.38
2022-11-19T22:16:04.517Z,29.60
2022-11-19T22:18:31.244Z,30.02
2022-11-19T22:21:02.527Z,30.65
2022-11-19T22:23:29.738Z,30.77
2022-11-19T22:25:56.660Z,31.83
2022-11-19T22:28:23.412Z,33.50
2022-11-19T22:30:53.812Z,32.85
2022-11-19T22:33:21.085Z,33.60
2022-11-19T22:35:48.182Z,33.83
2022-11-19T22:38:15.682Z,32.72
2022-11-19T22:40:42.481Z,33.85
2022-11-19T22:43:09.106Z,33.92
2022-11-19T22:45:35.849Z,33.85
2022-11-19T22:48:02.502Z,35.50
2022-11-19T22:50:29.148Z,36.28
2022-11-19T22:52:55.792Z,34.78
2022-11-19T22:55:22.757Z,36.90
2022-11-19T22:57:49.386Z,36.03
2022-11-19T23:00:40.988Z,35.05
2022-11-19T23:03:08.433Z,34.95
2022-11-19T23:05:37.246Z,37.60
2022-11-19T23:08:06.380Z,36.97
2022-11-19T23:10:33.490Z,33.67
2022-11-19T23:13:01.071Z,35.17
2022-11-19T23:15:27.818Z,36.10
2022-11-19T23:17:54.474Z,35.25
2022-11-19T23:20:21.107Z,32.10
2022-11-19T23:22:47.834Z,32.17
2022-11-19T23:25:14.576Z,30.38
2022-11-19T23:27:41.258Z,31.70
2022-11-19T23:30:08.850Z,31.83
2022-11-19T23:32:35.502Z,32.03
2022-11-19T23:35:02.169Z,30.83
2022-11-19T23:37:28.786Z,31.23
2022-11-19T23:39:55.500Z,33.40
2022-11-19T23:42:22.256Z,32.28
2022-11-19T23:44:48.913Z,32.90
2022-11-19T23:47:15.592Z,32.38
2022-11-19T23:49:42.275Z,32.47
2022-11-19T23:52:09.016Z,33.40
2022-11-19T23:54:35.928Z,31.80
2022-11-19T23:57:02.685Z,32.33
2022-11-19T23:59:29.513Z,32.22
